Map

Track Data

SID SEASON NUMBER BASIN SUBBASIN NAME ISO_TIME NATURE LAT LON WMO_WIND WMO_PRES WMO_AGENCY TRACK_TYPE DIST2LAND LANDFALL IFLAG USA_AGENCY USA_ATCF_ID USA_LAT USA_LON USA_RECORD USA_STATUS USA_WIND USA_PRES USA_SSHS USA_R34_NE USA_R34_SE USA_R34_SW USA_R34_NW USA_R50_NE USA_R50_SE USA_R50_SW USA_R50_NW USA_R64_NE USA_R64_SE USA_R64_SW USA_R64_NW USA_POCI USA_ROCI USA_RMW USA_EYE TOKYO_LAT TOKYO_LON TOKYO_GRADE TOKYO_WIND TOKYO_PRES TOKYO_R50_DIR TOKYO_R50_LONG TOKYO_R50_SHORT TOKYO_R30_DIR TOKYO_R30_LONG TOKYO_R30_SHORT TOKYO_LAND CMA_LAT CMA_LON CMA_CAT CMA_WIND CMA_PRES HKO_LAT HKO_LON HKO_CAT HKO_WIND HKO_PRES NEWDELHI_LAT NEWDELHI_LON NEWDELHI_GRADE NEWDELHI_WIND NEWDELHI_PRES NEWDELHI_CI NEWDELHI_DP NEWDELHI_POCI REUNION_LAT REUNION_LON REUNION_TYPE REUNION_WIND REUNION_PRES REUNION_TNUM REUNION_CI REUNION_RMW REUNION_R34_NE REUNION_R34_SE REUNION_R34_SW REUNION_R34_NW REUNION_R50_NE REUNION_R50_SE REUNION_R50_SW REUNION_R50_NW REUNION_R64_NE REUNION_R64_SE REUNION_R64_SW REUNION_R64_NW BOM_LAT BOM_LON BOM_TYPE BOM_WIND BOM_PRES BOM_TNUM BOM_CI BOM_RMW BOM_R34_NE BOM_R34_SE BOM_R34_SW BOM_R34_NW BOM_R50_NE BOM_R50_SE BOM_R50_SW BOM_R50_NW BOM_R64_NE BOM_R64_SE BOM_R64_SW BOM_R64_NW BOM_ROCI BOM_POCI BOM_EYE BOM_POS_METHOD BOM_PRES_METHOD NADI_LAT NADI_LON NADI_CAT NADI_WIND NADI_PRES WELLINGTON_LAT WELLINGTON_LON WELLINGTON_WIND WELLINGTON_PRES DS824_LAT DS824_LON DS824_STAGE DS824_WIND DS824_PRES TD9636_LAT TD9636_LON TD9636_STAGE TD9636_WIND TD9636_PRES TD9635_LAT TD9635_LON TD9635_WIND TD9635_PRES TD9635_ROCI NEUMANN_LAT NEUMANN_LON NEUMANN_CLASS NEUMANN_WIND NEUMANN_PRES MLC_LAT MLC_LON MLC_CLASS MLC_WIND MLC_PRES USA_GUST BOM_GUST BOM_GUST_PER REUNION_GUST REUNION_GUST_PER USA_SEAHGT USA_SEARAD_NE USA_SEARAD_SE USA_SEARAD_SW USA_SEARAD_NW STORM_SPEED STORM_DIR
1997336S09195 1998 112 SP MM PAM 1997-12-02 00:00:00 TS -9.10000 -164.900 main 948 923 O___________O_ jtwc_sh SH071998 -9.10000 -164.900 20 -1 -9.10000 -164.900 TC 20 5 242
1997336S09195 1998 112 SP MM PAM 1997-12-02 03:00:00 TS -9.22752 -165.145 main 923 890 P___________P_ SH071998 -9.22752 -165.145 22 -1 -9.22752 -165.145 TC 22 5 248
1997336S09195 1998 112 SP MM PAM 1997-12-02 06:00:00 TS -9.30000 -165.400 main 890 863 O___________O_ jtwc_sh SH071998 -9.30000 -165.400 25 -1 -9.30000 -165.400 TC 25 5 264
1997336S09195 1998 112 SP MM PAM 1997-12-02 09:00:00 TS -9.28001 -165.665 main 863 851 P___________P_ SH071998 -9.28001 -165.665 25 -1 -9.28001 -165.665 TC 25 5 281
1997336S09195 1998 112 SP MM PAM 1997-12-02 12:00:00 TS -9.20000 -165.900 main 851 841 O___________O_ jtwc_sh SH071998 -9.20000 -165.900 25 -1 -9.20000 -165.900 TC 25 4 294
1997336S09195 1998 112 SP MM PAM 1997-12-02 15:00:00 TS -9.09998 -166.073 main 841 839 P___________P_ SH071998 -9.09998 -166.073 25 -1 -9.09998 -166.073 TC 25 4 304
1997336S09195 1998 112 SP MM PAM 1997-12-02 18:00:00 TS -9.00000 -166.200 main 839 831 O___________O_ jtwc_sh SH071998 -9.00000 -166.200 25 -1 -9.00000 -166.200 TC 25 3 305
1997336S09195 1998 112 SP MM PAM 1997-12-02 21:00:00 TS -8.94248 -166.300 main 838 830 P___________P_ SH071998 -8.94248 -166.300 25 -1 -8.94248 -166.300 TC 25 2 297
1997336S09195 1998 112 SP MM PAM 1997-12-03 00:00:00 TS -8.90000 -166.400 main 830 821 O___________O_ jtwc_sh SH071998 -8.90000 -166.400 25 -1 -8.90000 -166.400 TC 25 3 291
1997336S09195 1998 112 SP MM PAM 1997-12-03 03:00:00 TS -8.85001 -166.550 main 813 813 P___________P_ SH071998 -8.85001 -166.550 25 -1 -8.85001 -166.550 TC 25 3 289
1997336S09195 1998 112 SP MM PAM 1997-12-03 06:00:00 TS -8.80000 -166.700 main 813 805 O___________O_ jtwc_sh SH071998 -8.80000 -166.700 25 -1 -8.80000 -166.700 TC 25 3 292
1997336S09195 1998 112 SP MM PAM 1997-12-03 09:00:00 TS -8.74999 -166.807 main 812 805 P___________P_ SH071998 -8.74999 -166.807 25 -1 -8.74999 -166.807 TC 25 2 297
1997336S09195 1998 112 SP MM PAM 1997-12-03 12:00:00 TS -8.70000 -166.900 main 805 797 O___________O_ jtwc_sh SH071998 -8.70000 -166.900 25 -1 -8.70000 -166.900 TC 25 2 299
1997336S09195 1998 112 SP MM PAM 1997-12-03 15:00:00 TS -8.64999 -166.993 main 805 797 P___________P_ SH071998 -8.64999 -166.993 25 -1 -8.64999 -166.993 TC 25 2 297
1997336S09195 1998 112 SP MM PAM 1997-12-03 18:00:00 TS -8.60000 -167.100 main 797 789 O___________O_ jtwc_sh SH071998 -8.60000 -167.100 25 -1 -8.60000 -167.100 TC 25 3 295
1997336S09195 1998 112 SP MM PAM 1997-12-03 21:00:00 TS -8.53500 -167.243 main 797 782 P___________P_ SH071998 -8.53500 -167.243 25 -1 -8.53500 -167.243 TC 25 3 289
1997336S09195 1998 112 SP MM PAM 1997-12-04 00:00:00 TS -8.50000 -167.400 main 782 767 O___________O_ jtwc_sh SH071998 -8.50000 -167.400 25 -1 -8.50000 -167.400 TC 25 3 275
1997336S09195 1998 112 SP MM PAM 1997-12-04 03:00:00 TS -8.50501 -167.572 main 767 751 P___________P_ SH071998 -8.50501 -167.572 25 -1 -8.50501 -167.572 TC 25 3 251
1997336S09195 1998 112 SP MM PAM 1997-12-04 06:00:00 TS -8.60000 -167.700 main 751 734 O___________O_ jtwc_sh SH071998 -8.60000 -167.700 25 -1 -8.60000 -167.700 TC 25 4 207
1997336S09195 1998 112 SP MM PAM 1997-12-04 09:00:00 TS -8.84248 -167.745 main 734 711 P___________P_ SH071998 -8.84248 -167.745 25 -1 -8.84248 -167.745 TC 25 5 178
1997336S09195 1998 112 SP MM PAM 1997-12-04 12:00:00 TS -9.10000 -167.700 main 711 703 O___________O_ jtwc_sh SH071998 -9.10000 -167.700 25 -1 -9.10000 -167.700 TC 25 4 158
1997336S09195 1998 112 SP MM PAM 1997-12-04 15:00:00 TS -9.22249 -167.587 main 710 710 P___________P_ SH071998 -9.22249 -167.587 25 -1 -9.22249 -167.587 TC 25 4 124
1997336S09195 1998 112 SP MM PAM 1997-12-04 18:00:00 TS -9.30000 -167.400 main 718 718 O___________O_ jtwc_sh SH071998 -9.30000 -167.400 25 -1 -9.30000 -167.400 TC 25 5 114
1997336S09195 1998 112 SP MM PAM 1997-12-04 21:00:00 TS -9.40751 -167.165 main 727 727 P___________P_ SH071998 -9.40751 -167.165 22 -1 -9.40751 -167.165 TC 22 7 98
1997336S09195 1998 112 SP MM PAM 1997-12-05 00:00:00 TS -9.40000 -166.720 30 998 nadi main 768 768 O_______O___O_ jtwc_sh SH071998 -9.50000 -166.900 20 -1 -9.00000 -166.000 30 998 -9.00000 -166.000 30 998 -9.50000 -166.900 TC 20 7 90
1997336S09195 1998 112 SP MM PAM 1997-12-05 03:00:00 TS -9.40493 -166.483 main 786 786 P______IP___P_ SH071998 -9.54237 -166.687 22 -1 -9.13005 -166.075 30 998 -9.13005 -166.075 30 998 -9.54237 -166.687 TC 22 4 100
1997336S09195 1998 112 SP MM PAM 1997-12-05 06:00:00 TS -9.47143 -166.314 30 998 nadi main 796 796 O_______O___O_ jtwc_sh SH071998 -9.60000 -166.400 25 -1 -9.30000 -166.200 30 998 -9.30000 -166.200 30 998 -9.60000 -166.400 TC 25 4 124
1997336S09195 1998 112 SP MM PAM 1997-12-05 09:00:00 TS -9.62742 -166.154 main 798 798 P______IP___P_ SH071998 -9.72003 -165.945 27 -1 -9.53481 -166.362 30 998 -9.53481 -166.362 30 998 -9.72003 -165.945 TC 27 6 130
1997336S09195 1998 112 SP MM PAM 1997-12-05 12:00:00 TS -9.85000 -165.850 30 998 nadi main 813 807 O_______O___O_ jtwc_sh SH071998 -9.90000 -165.400 30 -1 -9.80000 -166.300 30 998 -9.80000 -166.300 30 998 -9.90000 -165.400 TC 30 9 119
1997336S09195 1998 112 SP MM PAM 1997-12-05 15:00:00 TS -10.0813 -165.314 main 852 852 P______IP___P_ SH071998 -10.1275 -164.835 32 -1 -10.0350 -165.792 30 997 -10.0350 -165.792 30 997 -10.1275 -164.835 TC 32 13 113
1997336S09195 1998 112 SP MM PAM 1997-12-05 18:00:00 TS -10.3500 -164.650 30 997 nadi main 910 905 O_______O___O_ jtwc_sh SH071998 -10.4000 -164.300 35 0 -10.3000 -165.000 30 997 -10.3000 -165.000 30 997 -10.4000 -164.300 TC 35 15 114
1997336S09195 1998 112 SP MM PAM 1997-12-05 21:00:00 TS -10.6716 -163.937 main 963 963 P______IP___P_ SH071998 -10.6925 -163.833 37 0 -10.6507 -164.040 30 997 -10.6507 -164.040 30 997 -10.6925 -163.833 TC 37 14 117
1997336S09195 1998 112 SP MM PAM 1997-12-06 00:00:00 TS -11.0000 -163.350 30 997 nadi main 1003 1003 O_______O___O_ jtwc_sh SH071998 -11.0000 -163.500 40 0 -11.0000 -163.200 30 997 -11.0000 -163.200 30 997 -11.0000 -163.500 TC 40 10 127
1997336S09195 1998 112 SP MM PAM 1997-12-06 03:00:00 TS -11.2897 -163.089 main 1024 1021 P______IP___P_ SH071998 -11.2999 -163.347 45 0 -11.2795 -162.830 32 996 -11.2795 -162.830 32 996 -11.2999 -163.347 TC 45 7 148
1997336S09195 1998 112 SP MM PAM 1997-12-06 06:00:00 TS -11.5500 -163.000 35 995 nadi main 1028 1025 O_______O___O_ jtwc_sh SH071998 -11.6000 -163.300 50 0 -11.5000 -162.700 35 995 -11.5000 -162.700 35 995 -11.6000 -163.300 TC 50 5 156
1997336S09195 1998 112 SP MM PAM 1997-12-06 09:00:00 TS -11.7562 -162.880 main 1031 1031 P______IP___P_ SH071998 -11.8925 -163.242 57 0 -11.6199 -162.518 35 995 -11.6199 -162.518 35 995 -11.8925 -163.242 TC 57 5 162
1997336S09195 1998 112 SP MM PAM 1997-12-06 12:00:00 TS -12.0000 -162.850 35 995 nadi main 1026 1009 O_______O___O_ jtwc_sh SH071998 -12.2000 -163.200 65 1 -11.8000 -162.500 35 995 -11.8000 -162.500 35 995 -12.2000 -163.200 TC 65 6 188
1997336S09195 1998 112 SP MM PAM 1997-12-06 15:00:00 TS -12.3476 -162.975 main 1009 990 P______IP___P_ SH071998 -12.5275 -163.165 65 1 -12.1677 -162.785 37 992 -12.1677 -162.785 37 992 -12.5275 -163.165 TC 65 8 197
1997336S09195 1998 112 SP MM PAM 1997-12-06 18:00:00 TS -12.8000 -163.100 40 990 nadi main 990 985 O_______O___O_ jtwc_sh SH071998 -12.9000 -163.100 65 1 -12.7000 -163.100 40 990 -12.7000 -163.100 40 990 -12.9000 -163.100 TC 65 10 184
1997336S09195 1998 112 SP MM PAM 1997-12-06 21:00:00 TS -13.3787 -163.051 main 984 984 P______IP___P_ SH071998 -13.3350 -162.958 65 1 -13.4224 -163.145 45 987 -13.4224 -163.145 45 987 -13.3350 -162.958 TC 65 12 173
1997336S09195 1998 112 SP MM PAM 1997-12-07 00:00:00 TS -13.9500 -162.950 50 985 nadi main 993 993 O_______O___O_ jtwc_sh SH071998 -13.8000 -162.800 65 1 -14.1000 -163.100 50 985 -14.1000 -163.100 50 985 -13.8000 -162.800 TC 65 10 172
1997336S09195 1998 112 SP MM PAM 1997-12-07 03:00:00 TS -14.3437 -162.911 main 1005 1005 P______IP___P_ SH071998 -14.2425 -162.700 65 1 -14.4450 -163.122 50 985 -14.4450 -163.122 50 985 -14.2425 -162.700 TC 65 8 173
1997336S09195 1998 112 SP MM PAM 1997-12-07 06:00:00 TS -14.7000 -162.850 50 985 nadi main 1007 1007 O_______O___O_ jtwc_sh SH071998 -14.7000 -162.600 65 1 -14.7000 -163.100 50 985 -14.7000 -163.100 50 985 -14.7000 -162.600 TC 65 8 166
1997336S09195 1998 112 SP MM PAM 1997-12-07 09:00:00 TS -15.1238 -162.711 main 1033 1033 P______IP___P_ SH071998 -15.1925 -162.458 65 1 -15.0550 -162.965 52 982 -15.0550 -162.965 52 982 -15.1925 -162.458 TC 65 10 162
1997336S09195 1998 112 SP MM PAM 1997-12-07 12:00:00 TS -15.6000 -162.550 55 980 nadi main 1052 1052 O_______O___O_ jtwc_sh SH071998 -15.7000 -162.300 65 1 -15.5000 -162.800 55 980 -15.5000 -162.800 55 980 -15.7000 -162.300 TC 65 11 166
1997336S09195 1998 112 SP MM PAM 1997-12-07 15:00:00 TS -16.1537 -162.447 main 1086 1086 P______IP___P_ SH071998 -16.2075 -162.157 65 1 -16.0999 -162.737 55 980 -16.0999 -162.737 55 980 -16.2075 -162.157 TC 65 11 168
1997336S09195 1998 112 SP MM PAM 1997-12-07 18:00:00 TS -16.7000 -162.300 55 980 nadi main 1110 1110 O_______O___O_ jtwc_sh SH071998 -16.7000 -162.000 65 1 -16.7000 -162.600 55 980 -16.7000 -162.600 55 980 -16.7000 -162.000 TC 65 11 157
1997336S09195 1998 112 SP MM PAM 1997-12-07 21:00:00 TS -17.1326 -162.015 main 1154 1154 P______IP___P_ SH071998 -17.1500 -161.807 60 0 -17.1152 -162.223 55 980 -17.1152 -162.223 55 980 -17.1500 -161.807 TC 60 10 146
1997336S09195 1998 112 SP MM PAM 1997-12-08 00:00:00 TS -17.5500 -161.700 55 980 nadi main 1198 1198 O_______O___O_ jtwc_sh SH071998 -17.6000 -161.600 55 0 -17.5000 -161.800 55 980 -17.5000 -161.800 55 980 -17.6000 -161.600 TC 55 11 150
1997336S09195 1998 112 SP MM PAM 1997-12-08 03:00:00 TS -18.0424 -161.475 main 1237 1237 P______IP___P_ SH071998 -18.1000 -161.407 55 0 -17.9848 -161.542 57 977 -17.9848 -161.542 57 977 -18.1000 -161.407 TC 55 11 157
1997336S09195 1998 112 SP MM PAM 1997-12-08 06:00:00 TS -18.5500 -161.250 60 975 nadi main 1287 1277 O_______O___O_ jtwc_sh SH071998 -18.6000 -161.200 55 0 -18.5000 -161.300 60 975 -18.5000 -161.300 60 975 -18.6000 -161.200 TC 55 11 153
1997336S09195 1998 112 SP MM PAM 1997-12-08 09:00:00 TS -19.0513 -160.943 main 1342 1342 P______IP___P_ SH071998 -19.0725 -160.957 57 0 -19.0302 -160.928 60 975 -19.0302 -160.928 60 975 -19.0725 -160.957 TC 57 11 149
1997336S09195 1998 112 SP MM PAM 1997-12-08 12:00:00 TS -19.5000 -160.650 60 975 nadi main 1390 1390 O_______O___O_ jtwc_sh SH071998 -19.5000 -160.700 60 0 -19.5000 -160.600 60 975 -19.5000 -160.600 60 975 -19.5000 -160.700 TC 60 9 151
1997336S09195 1998 112 SP MM PAM 1997-12-08 15:00:00 TS -19.8511 -160.463 main 1419 1419 P______IP___P_ SH071998 -19.8799 -160.457 60 0 -19.8224 -160.470 60 975 -19.8224 -160.470 60 975 -19.8799 -160.457 TC 60 7 153
1997336S09195 1998 112 SP MM PAM 1997-12-08 18:00:00 TS -20.1500 -160.300 60 975 nadi main 1448 1448 O_______O___O_ jtwc_sh SH071998 -20.2000 -160.200 60 0 -20.1000 -160.400 60 975 -20.1000 -160.400 60 975 -20.2000 -160.200 TC 60 7 148
1997336S09195 1998 112 SP MM PAM 1997-12-08 21:00:00 TS -20.4387 -160.075 main 1482 1482 P______IP___P_ SH071998 -20.4499 -159.915 60 0 -20.4275 -160.235 57 977 -20.4275 -160.235 57 977 -20.4499 -159.915 TC 60 7 145
1997336S09195 1998 112 SP MM PAM 1997-12-09 00:00:00 TS -20.7500 -159.850 55 980 nadi main 1516 1516 O_______O___O_ jtwc_sh SH071998 -20.7000 -159.600 60 0 -20.8000 -160.100 55 980 -20.8000 -160.100 55 980 -20.7000 -159.600 TC 60 8 154
1997336S09195 1998 112 SP MM PAM 1997-12-09 03:00:00 TS -21.1273 -159.712 main 1556 1556 P______IP___P_ SH071998 -21.0349 -159.265 60 0 -21.2197 -160.159 55 980 -21.2197 -160.159 55 980 -21.0349 -159.265 TC 60 9 158
1997336S09195 1998 112 SP MM PAM 1997-12-09 06:00:00 TS -21.5500 -159.500 55 980 nadi main 1596 1602 O_______O___O_ jtwc_sh SH071998 -21.4000 -158.900 60 0 -21.7000 -160.100 55 980 -21.7000 -160.100 55 980 -21.4000 -158.900 TC 60 11 146
1997336S09195 1998 112 SP MM PAM 1997-12-09 09:00:00 TS -22.0190 -159.056 main 1660 1660 P______IP___P_ SH071998 -21.7423 -158.522 57 0 -22.2957 -159.589 52 982 -22.2957 -159.589 52 982 -21.7423 -158.522 TC 57 13 136
1997336S09195 1998 112 SP MM PAM 1997-12-09 12:00:00 TS -22.4500 -158.550 50 985 nadi main 1728 1733 O_______O___O_ jtwc_sh SH071998 -22.1000 -158.100 55 0 -22.8000 -159.000 50 985 -22.8000 -159.000 50 985 -22.1000 -158.100 TC 55 11 132
1997336S09195 1998 112 SP MM PAM 1997-12-09 15:00:00 TS -22.7433 -158.197 main 1780 1780 P______IP___P_ SH071998 -22.4847 -157.637 52 0 -23.0018 -158.756 47 986 -23.0018 -158.756 47 986 -22.4847 -157.637 TC 52 8 133
1997336S09195 1998 112 SP MM PAM 1997-12-09 18:00:00 TS -23.0143 -157.900 45 987 nadi main 1824 1824 O_______O___O_ jtwc_sh SH071998 -22.9000 -157.100 50 0 -23.1000 -158.500 45 987 -23.1000 -158.500 45 987 -22.9000 -157.100 TC 50 9 129
1997336S09195 1998 112 SP MM PAM 1997-12-09 21:00:00 TS -23.3047 -157.450 main 1876 1876 P______IP___P_ SH071998 -23.3432 -156.476 40 0 -23.2854 -157.938 42 988 -23.2854 -157.938 42 988 -23.3432 -156.476 TC 40 10 123
1997336S09195 1998 112 SP MM PAM 1997-12-10 00:00:00 TS -23.5600 -157.000 40 990 nadi main 1937 1937 O_______O___O_ jtwc_sh SH071998 -23.8000 -155.800 30 -1 -23.5000 -157.300 40 990 -23.5000 -157.300 40 990 -23.8000 -155.800 TC 30 7 123
1997336S09195 1998 112 SP MM PAM 1997-12-10 03:00:00 NR -23.7123 -156.777 main 1961 1961 _______IP_____ SH071998 -1 -23.7123 -156.777 37 992 -23.7123 -156.777 37 992 TC 8 124
1997336S09195 1998 112 SP MM PAM 1997-12-10 06:00:00 NR -24.0000 -156.300 35 995 nadi main 2021 2021 ________O_____ -1 -24.0000 -156.300 35 995 -24.0000 -156.300 35 995 11 132
1997336S09195 1998 112 SP MM PAM 1997-12-10 09:00:00 NR -24.4319 -155.893 main 2079 2079 _______IP_____ -1 -24.4128 -155.846 32 996 -24.4414 -155.917 32 996 12 138
1997336S09195 1998 112 SP MM PAM 1997-12-10 12:00:00 NR -24.9000 -155.400 30 997 nadi main 2152 2152 ________O_____ -1 -24.9000 -155.400 30 997 -24.9000 -155.400 30 997 15 122
1997336S09195 1998 112 SP MM PAM 1997-12-10 15:00:00 NR -25.2388 -154.480 main 2246 2246 ________P_____ -1 -25.2388 -154.480 30 997 18 109
1997336S09195 1998 112 SP MM PAM 1997-12-10 18:00:00 NR -25.5000 -153.500 30 997 wellington main 2350 2350 ________O_____ -1 -25.5000 -153.500 30 997 16 107
1997336S09195 1998 112 SP MM PAM 1997-12-10 21:00:00 NR -25.6991 -152.797 main 2422 2422 ________P_____ -1 -25.6991 -152.797 30 997 12 109
1997336S09195 1998 112 SP MM PAM 1997-12-11 00:00:00 NR -25.9000 -152.200 30 997 wellington main 2485 2485 ________O_____ -1 -25.9000 -152.200 30 997 11 112
1997336S09195 1998 112 SP MM PAM 1997-12-11 03:00:00 NR -26.1240 -151.636 main 2548 2548 ________P_____ -1 -26.1240 -151.636 30 997 12 119
1997336S09195 1998 112 SP MM PAM 1997-12-11 06:00:00 NR -26.5000 -151.000 30 997 wellington main 2622 2622 ________O_____ -1 -26.5000 -151.000 30 997 17 127
1997336S09195 1998 112 SP MM PAM 1997-12-11 09:00:00 NR -27.1254 -150.138 main 2733 2733 ________P_____ -1 -27.1254 -150.138 30 997 21 131
1997336S09195 1998 112 SP MM PAM 1997-12-11 12:00:00 NR -27.9000 -149.200 30 997 wellington main 2853 2853 ________O_____ -1 -27.9000 -149.200 30 997 23 135
1997336S09195 1998 112 SP MM PAM 1997-12-11 15:00:00 NR -28.7301 -148.291 main 2973 2973 ________P_____ -1 -28.7301 -148.291 30 997 22 137
1997336S09195 1998 112 SP MM PAM 1997-12-11 18:00:00 NR -29.5000 -147.500 30 997 wellington main 3085 3085 ________O_____ -1 -29.5000 -147.500 30 997 18 138
1997336S09195 1998 112 SP MM PAM 1997-12-11 21:00:00 NR -30.0440 -146.945 main 3162 3162 ________P_____ -1 -30.0440 -146.945 30 997 13 139
1997336S09195 1998 112 SP MM PAM 1997-12-12 00:00:00 NR -30.5000 -146.500 30 997 wellington main 3223 3223 ________O_____ -1 -30.5000 -146.500 30 997 12 139
1997336S09195 1998 112 SP MM PAM 1997-12-12 03:00:00 NR -30.9771 -146.014 main 3292 3292 ________P_____ -1 -30.9771 -146.014 30 997 13 139
1997336S09195 1998 112 SP MM PAM 1997-12-12 06:00:00 NR -31.5000 -145.500 30 997 wellington main 3329 3329 ________O_____ -1 -31.5000 -145.500 30 997 13 140
1997336S09195 1998 112 SP MM PAM 1997-12-12 09:00:00 NR -31.9443 -145.060 main 3348 3348 ________P_____ -1 -31.9443 -145.060 30 997 17 142
1997336S09195 1998 112 SP MM PAM 1997-12-12 12:00:00 NR -32.8000 -144.300 30 997 wellington main 3382 3382 ________O_____ -1 -32.8000 -144.300 30 997 32 143
1997336S09195 1998 112 SP MM PAM 1997-12-12 15:00:00 NR -34.4907 -142.760 main 3453 3453 ________P_____ -1 -34.4907 -142.760 30 997 46 144
1997336S09195 1998 112 SP MM PAM 1997-12-12 18:00:00 NR -36.5000 -141.000 30 997 wellington main 3548 3548 ________O_____ -1 -36.5000 -141.000 30 997 45 147
1997336S09195 1998 112 SP MM PAM 1997-12-12 21:00:00 NR -38.2613 -139.679 main 3612 3612 ________P_____ -1 -38.2613 -139.679 30 997 40 151
1997336S09195 1998 112 SP MM PAM 1997-12-13 00:00:00 NR -40.0000 -138.500 30 997 wellington main 3675 3541 ________O_____ -1 -40.0000 -138.500 30 997 41 152
1997336S09195 1998 112 SP MM PAM 1997-12-13 03:00:00 NR -41.9009 -137.146 main 3529 3354 ________P_____ -1 -41.9009 -137.146 30 994 40 152
1997336S09195 1998 112 SP MM PAM 1997-12-13 06:00:00 NR -43.5000 -136.000 30 992 wellington main 3343 3263 ________O_____ -1 -43.5000 -136.000 30 992 25 155
1997336S09195 1998 112 SP MM PAM 1997-12-13 09:00:00 NR -44.2015 -135.644 main 3262 3181 ________P_____ -1 -44.2015 -135.644 35 988 17 154
1997336S09195 1998 112 SP MM PAM 1997-12-13 12:00:00 NR -45.0000 -135.000 40 984 wellington main 3169 2967 ________O_____ -1 -45.0000 -135.000 40 984 33 143
1997336S09195 1998 112 SP MM PAM 1997-12-13 15:00:00 NR -46.8187 -132.888 main 2955 2709 ________P_____ -1 -46.8187 -132.888 40 983 52 139
1997336S09195 1998 112 SP MM PAM 1997-12-13 18:00:00 NR -49.0000 -130.000 40 982 wellington main 2697 2468 ________O_____ -1 -49.0000 -130.000 40 982 57 139
1997336S09195 1998 112 SP MM PAM 1997-12-13 21:00:00 NR -51.1443 -127.123 main 2456 2256 ________P_____ -1 -51.1443 -127.123 37 978 55 137
1997336S09195 1998 112 SP MM PAM 1997-12-14 00:00:00 NR -53.0000 -124.000 35 974 wellington main 2245 2128 ________O_____ -1 -53.0000 -124.000 35 974 50 127
1997336S09195 1998 112 SP MM PAM 1997-12-14 03:00:00 NR -54.1214 -120.496 main 2129 2020 ________P_____ -1 -54.1214 -120.496 32 975 43 118
1997336S09195 1998 112 SP MM PAM 1997-12-14 06:00:00 NR -55.0000 -117.500 main 2007 1861 ________O_____ -1 -55.0000 -117.500 30 976 34 126
1997336S09195 1998 112 SP MM PAM 1997-12-14 09:00:00 NR -56.1415 -115.657 main 1861 1705 ________P_____ -1 -56.1415 -115.657 30 972 30 146
1997336S09195 1998 112 SP MM PAM 1997-12-14 12:00:00 NR -57.5000 -114.500 main 1693 ________O_____ -1 -57.5000 -114.500 30 968 30 155

Digital Typhoon Data and Search

About IBTrACS Database

This database is a web-friendly format of International Best Track Archive for Climate Stewardship (IBTrACS), a global best track data archive curated by NOAA dating back to 1842.

Updated: 2021-12-03